Time;durP1;ratioP1;P1;durP2;ratioP2;P2;SDS_P1;SDS_P2;PMS_P1;PMS_P2;Temp;Humidity;BMP_temperature;BMP_pressure;BME280_temperature;BME280_humidity;BME280_pressure;Samples;Min_cycle;Max_cycle;Signal;HPM_P1;HPM_P2
2022/12/07 06:04:04;;;;;;;13.00;7.18;;;2.70;99.90;;;;;;4860685;29;20048;-76
2022/12/07 06:06:30;;;;;;;18.67;12.07;;;2.70;99.90;;;;;;4870283;29;20390;-76
2022/12/07 06:08:59;;;;;;;20.27;12.52;;;2.70;99.90;;;;;;4865964;29;20339;-76
2022/12/07 06:14:09;;;;;;;14.43;8.93;;;2.80;99.90;;;;;;4870388;29;20097;-77
2022/12/07 06:16:38;;;;;;;15.27;8.48;;;2.90;99.90;;;;;;4868392;29;20029;-77
2022/12/07 06:19:03;;;;;;;;;;;3.00;99.90;;;;;;4853987;29;20037;-76
2022/12/07 06:21:32;;;;;;;14.20;8.15;;;3.00;99.90;;;;;;4869244;29;19912;-77
2022/12/07 06:23:57;;;;;;;13.73;7.68;;;3.00;99.90;;;;;;4868839;29;20354;-77
2022/12/07 06:26:23;;;;;;;44.40;25.92;;;3.00;99.90;;;;;;4869680;29;20033;-75
2022/12/07 06:28:49;;;;;;;16.58;10.63;;;3.10;99.90;;;;;;4868422;29;20316;-76
2022/12/07 06:31:15;;;;;;;13.80;8.25;;;3.10;99.90;;;;;;4869239;29;20062;-74
2022/12/07 06:33:50;;;;;;;14.43;7.60;;;3.20;99.90;;;;;;4854439;29;20041;-75
2022/12/07 06:36:16;;;;;;;12.98;7.68;;;3.20;99.90;;;;;;4853263;29;20104;-75
2022/12/07 06:38:41;;;;;;;14.80;8.32;;;3.20;99.90;;;;;;4869324;29;20028;-76
2022/12/07 06:41:07;;;;;;;14.45;8.20;;;3.30;99.90;;;;;;4869918;29;20032;-75
2022/12/07 06:43:33;;;;;;;14.13;8.13;;;3.20;99.90;;;;;;4869443;29;20041;-74
2022/12/07 06:45:59;;;;;;;18.38;10.10;;;3.20;99.90;;;;;;4868313;29;20044;-77
2022/12/07 06:48:25;;;;;;;14.45;9.90;;;3.20;99.90;;;;;;4869560;29;20030;-76
2022/12/07 06:50:51;;;;;;;15.85;8.82;;;3.20;99.90;;;;;;4867745;29;20049;-75
2022/12/07 06:53:17;;;;;;;14.05;8.43;;;3.20;99.90;;;;;;4870999;29;20035;-75
2022/12/07 06:55:43;;;;;;;16.75;8.00;;;3.20;99.90;;;;;;4856410;29;20037;-76
2022/12/07 06:58:10;;;;;;;12.73;7.53;;;3.10;99.90;;;;;;4872161;29;20077;-76
2022/12/07 07:00:38;;;;;;;12.38;7.20;;;3.20;99.90;;;;;;4873175;29;20064;-77
2022/12/07 07:03:04;;;;;;;14.13;7.78;;;3.20;99.90;;;;;;4871987;29;20069;-76
2022/12/07 07:05:30;;;;;;;14.07;7.70;;;3.30;99.90;;;;;;4856896;29;20435;-76
2022/12/07 07:07:55;;;;;;;12.57;7.57;;;3.30;99.90;;;;;;4872613;29;20061;-75
2022/12/07 07:10:21;;;;;;;11.43;6.88;;;3.30;99.90;;;;;;4873183;29;20037;-74
2022/12/07 07:12:50;;;;;;;10.82;6.35;;;3.30;99.90;;;;;;4872723;29;20088;-76
2022/12/07 07:15:16;;;;;;;9.88;5.97;;;3.30;99.90;;;;;;4868251;29;20032;-75
2022/12/07 07:17:41;;;;;;;9.80;5.80;;;3.30;99.90;;;;;;4873963;29;20034;-75
2022/12/07 07:20:07;;;;;;;11.77;5.80;;;3.40;99.90;;;;;;4872188;29;20034;-75
2022/12/07 07:22:33;;;;;;;8.57;5.07;;;3.40;99.90;;;;;;4866827;29;20030;-76
2022/12/07 07:24:59;;;;;;;8.85;5.00;;;3.50;99.90;;;;;;4853531;29;20037;-76
2022/12/07 07:27:25;;;;;;;9.00;5.40;;;3.60;99.90;;;;;;4853016;29;20034;-75
2022/12/07 07:29:50;;;;;;;8.43;5.22;;;3.60;99.90;;;;;;4851456;29;20109;-74
2022/12/07 07:32:16;;;;;;;7.93;5.07;;;3.60;99.90;;;;;;4870199;29;20036;-76
2022/12/07 07:34:45;;;;;;;10.27;5.05;;;3.60;99.90;;;;;;4870807;29;20033;-76
2022/12/07 07:37:12;;;;;;;8.50;4.93;;;3.70;99.90;;;;;;4846216;29;20102;-77
2022/12/07 07:39:38;;;;;;;7.32;4.32;;;3.70;99.90;;;;;;4835802;29;20045;-76
2022/12/07 07:42:04;;;;;;;6.90;4.25;;;3.70;99.90;;;;;;4852781;29;20029;-77
2022/12/07 07:44:32;;;;;;;8.95;4.32;;;3.80;99.90;;;;;;4836534;29;20033;-74
2022/12/07 07:46:58;;;;;;;7.43;4.43;;;3.80;99.90;;;;;;4852571;29;20038;-74
2022/12/07 07:49:23;;;;;;;7.25;4.40;;;3.80;99.90;;;;;;4870107;29;20097;-73
2022/12/07 07:51:49;;;;;;;7.25;4.28;;;3.80;99.90;;;;;;4871063;29;20260;-73
2022/12/07 07:54:15;;;;;;;7.97;4.25;;;3.80;99.90;;;;;;4871465;29;20033;-74
2022/12/07 07:56:41;;;;;;;9.02;4.72;;;3.90;99.90;;;;;;4870593;29;20134;-75
2022/12/07 07:59:06;;;;;;;9.75;4.57;;;3.90;99.90;;;;;;4870073;29;20146;-72
2022/12/07 08:01:32;;;;;;;7.38;4.03;;;4.00;99.90;;;;;;4871303;29;20350;-74
2022/12/07 08:03:58;;;;;;;7.68;4.70;;;4.00;99.90;;;;;;4870304;29;20264;-74
2022/12/07 08:06:27;;;;;;;7.65;3.97;;;4.00;99.90;;;;;;4854613;29;20081;-75
2022/12/07 08:08:58;;;;;;;9.55;4.68;;;4.10;99.90;;;;;;4870109;29;20041;-78
2022/12/07 08:11:25;;;;;;;10.38;5.03;;;4.10;99.90;;;;;;4854073;29;20089;-73
2022/12/07 08:13:50;;;;;;;8.18;4.38;;;4.10;99.90;;;;;;4870334;29;20033;-73
2022/12/07 08:16:16;;;;;;;9.75;4.43;;;4.20;99.90;;;;;;4870931;29;20040;-75
2022/12/07 08:18:42;;;;;;;8.38;4.65;;;4.20;99.90;;;;;;4869483;29;20331;-73
2022/12/07 08:21:12;;;;;;;7.63;4.50;;;4.30;99.90;;;;;;4870686;29;20026;-76
2022/12/07 08:23:38;;;;;;;9.30;5.57;;;4.30;99.90;;;;;;4870168;29;20029;-72
2022/12/07 08:26:07;;;;;;;7.95;4.03;;;4.30;99.90;;;;;;4839235;29;20029;-74
2022/12/07 08:28:33;;;;;;;8.18;4.47;;;4.50;99.90;;;;;;4854319;29;20215;-75
2022/12/07 08:31:01;;;;;;;8.35;4.10;;;4.50;99.90;;;;;;4870066;29;20128;-75
2022/12/07 08:33:27;;;;;;;7.60;4.77;;;4.50;99.90;;;;;;4870813;29;20057;-76
2022/12/07 08:35:53;;;;;;;8.27;4.65;;;4.50;99.90;;;;;;4853968;29;20767;-74
2022/12/07 08:38:18;;;;;;;7.95;3.90;;;4.70;99.90;;;;;;4870438;29;20026;-75
2022/12/07 08:40:44;;;;;;;6.72;3.92;;;4.70;99.90;;;;;;4870286;29;20041;-75
2022/12/07 08:43:10;;;;;;;8.93;4.10;;;4.70;99.90;;;;;;4853902;29;20064;-76
2022/12/07 08:45:36;;;;;;;8.27;5.15;;;4.80;99.90;;;;;;4869817;29;20041;-76
2022/12/07 08:48:10;;;;;;;8.60;4.75;;;4.80;99.90;;;;;;4870093;29;20037;-73
2022/12/07 08:50:37;;;;;;;6.65;4.00;;;4.90;99.90;;;;;;4869912;29;20084;-75
2022/12/07 08:53:05;;;;;;;8.90;4.47;;;5.00;99.90;;;;;;4869952;29;20049;-75
2022/12/07 08:55:31;;;;;;;7.88;4.38;;;5.00;99.90;;;;;;4870014;29;20311;-74
2022/12/07 08:57:58;;;;;;;8.25;4.00;;;5.10;99.90;;;;;;4869220;29;20033;-77
2022/12/07 09:00:25;;;;;;;7.70;4.43;;;5.20;99.90;;;;;;4869707;29;20037;-75
2022/12/07 09:02:51;;;;;;;7.88;4.20;;;5.20;99.90;;;;;;4868842;29;20072;-76
2022/12/07 09:05:20;;;;;;;9.30;5.18;;;5.30;99.90;;;;;;4869803;29;20260;-75
2022/12/07 09:07:49;;;;;;;8.77;4.57;;;5.20;99.90;;;;;;4869541;29;20334;-75
2022/12/07 09:10:17;;;;;;;8.02;3.85;;;5.20;99.90;;;;;;4869816;29;20044;-74
2022/12/07 09:12:43;;;;;;;;;;;5.30;99.90;;;;;;4868704;29;20033;-76
2022/12/07 09:15:12;;;;;;;8.38;3.97;;;5.30;99.90;;;;;;4853495;29;19931;-75
2022/12/07 09:17:38;;;;;;;6.90;4.05;;;5.40;99.90;;;;;;4850800;29;20041;-75
2022/12/07 09:20:05;;;;;;;7.65;3.30;;;5.40;99.90;;;;;;4851352;29;20070;-75
2022/12/07 09:22:31;;;;;;;7.20;4.57;;;5.50;99.90;;;;;;4861035;29;20033;-75
2022/12/07 09:24:58;;;;;;;7.80;4.38;;;5.50;99.90;;;;;;4868205;29;20438;-76
2022/12/07 09:27:24;;;;;;;7.05;4.13;;;5.70;99.90;;;;;;4869756;29;20069;-76
2022/12/07 09:29:50;;;;;;;8.40;3.70;;;5.70;99.90;;;;;;4869155;29;20041;-73
2022/12/07 09:32:16;;;;;;;7.55;3.70;;;5.80;99.90;;;;;;4853033;29;20528;-75
2022/12/07 09:34:41;;;;;;;9.88;4.00;;;5.80;99.90;;;;;;4868907;29;20025;-75
2022/12/07 09:37:08;;;;;;;7.28;3.90;;;5.90;99.90;;;;;;4869595;29;20064;-75
2022/12/07 09:39:33;;;;;;;5.05;2.58;;;6.00;99.90;;;;;;4869646;29;20037;-75
2022/12/07 09:42:02;;;;;;;5.03;2.67;;;6.20;99.90;;;;;;4868917;29;20041;-76
2022/12/07 09:44:28;;;;;;;4.60;2.38;;;6.30;99.90;;;;;;4869507;29;20092;-76
2022/12/07 09:46:56;;;;;;;4.97;2.90;;;6.30;99.90;;;;;;4869174;29;20033;-75
2022/12/07 09:49:25;;;;;;;4.63;2.15;;;6.40;99.90;;;;;;4869463;29;20039;-75
2022/12/07 09:52:24;;;;;;;4.32;2.40;;;6.50;99.90;;;;;;4869458;29;20042;-75
2022/12/07 09:54:51;;;;;;;4.05;2.30;;;6.40;99.90;;;;;;4869110;29;20073;-77
2022/12/07 09:57:20;;;;;;;4.13;2.35;;;6.30;99.90;;;;;;4868875;29;20081;-76
2022/12/07 09:59:46;;;;;;;5.53;3.03;;;6.40;99.90;;;;;;4868578;29;20108;-78
2022/12/07 10:02:34;;;;;;;4.90;2.53;;;6.70;99.90;;;;;;4868891;29;20097;-76
2022/12/07 10:05:01;;;;;;;3.95;2.20;;;6.60;99.90;;;;;;4867498;29;20141;-76
2022/12/07 10:07:26;;;;;;;3.75;2.30;;;6.70;99.90;;;;;;4868954;29;20037;-73
2022/12/07 10:09:52;;;;;;;3.85;2.30;;;6.60;99.90;;;;;;4851817;29;20097;-76
2022/12/07 10:12:18;;;;;;;7.03;2.78;;;6.60;99.90;;;;;;4869508;29;20029;-75
2022/12/07 10:15:02;;;;;;;5.10;2.80;;;6.60;99.90;;;;;;4837580;29;20342;-75
2022/12/07 10:17:47;;;;;;;5.07;2.53;;;6.70;99.90;;;;;;4866454;29;20025;-75
2022/12/07 10:20:26;;;;;;;4.65;2.15;;;6.70;99.90;;;;;;4834358;29;20105;-75
2022/12/07 10:23:13;;;;;;;4.60;2.55;;;6.90;99.90;;;;;;4864313;29;20135;-77
2022/12/07 10:25:40;;;;;;;4.03;2.30;;;6.80;99.90;;;;;;4864544;29;20070;-72
2022/12/07 10:28:14;;;;;;;5.60;2.50;;;6.70;99.90;;;;;;4867520;29;20033;-76
2022/12/07 10:31:16;;;;;;;4.45;2.25;;;6.80;99.90;;;;;;4855195;29;20029;-77
2022/12/07 10:33:59;;;;;;;4.88;2.63;;;6.80;99.90;;;;;;4845763;29;20037;-75
2022/12/07 10:36:36;;;;;;;4.90;2.42;;;6.90;99.90;;;;;;4868571;29;20033;-74
2022/12/07 10:39:14;;;;;;;4.75;2.25;;;7.00;99.90;;;;;;4849350;29;20029;-75
2022/12/07 10:42:05;;;;;;;5.30;2.33;;;7.10;99.90;;;;;;4855239;29;20033;-75
2022/12/07 10:44:34;;;;;;;4.32;2.00;;;7.20;99.90;;;;;;4836415;29;20050;-75
2022/12/07 10:47:26;;;;;;;5.65;2.30;;;7.00;99.90;;;;;;4857812;29;20577;-75
2022/12/07 10:50:19;;;;;;;5.75;2.25;;;6.90;99.90;;;;;;4857132;29;20650;-76
2022/12/07 10:53:14;;;;;;;3.40;1.90;;;6.80;99.90;;;;;;4868136;29;20041;-74
2022/12/07 10:55:58;;;;;;;4.60;2.63;;;6.70;99.90;;;;;;4798141;30;20069;-75
2022/12/07 10:59:01;;;;;;;4.55;2.53;;;6.70;99.90;;;;;;4793976;30;20039;-76
2022/12/07 11:01:40;;;;;;;5.53;2.78;;;6.50;99.90;;;;;;4850316;29;20061;-75
2022/12/07 11:04:18;;;;;;;6.03;2.92;;;6.50;99.90;;;;;;4832079;29;20256;-76
2022/12/07 11:07:10;;;;;;;5.45;3.20;;;6.40;99.90;;;;;;4831947;29;20038;-76
2022/12/07 11:09:44;;;;;;;5.55;2.80;;;6.30;99.90;;;;;;4840322;29;20054;-77
2022/12/07 11:12:20;;;;;;;4.90;2.72;;;6.30;99.90;;;;;;4831659;29;20069;-76
2022/12/07 11:14:58;;;;;;;5.35;2.80;;;6.30;99.90;;;;;;4842725;29;20038;-76
2022/12/07 11:17:44;;;;;;;7.13;3.00;;;6.20;99.90;;;;;;4849799;29;20045;-76
2022/12/07 11:20:39;;;;;;;6.50;2.97;;;6.20;99.90;;;;;;4849838;29;20041;-76
2022/12/07 11:23:26;;;;;;;5.28;2.95;;;6.10;99.90;;;;;;4849237;29;20022;-76
2022/12/07 11:26:23;;;;;;;4.32;2.42;;;6.10;99.90;;;;;;4849822;29;20052;-76
2022/12/07 11:29:17;;;;;;;6.15;2.78;;;6.10;99.90;;;;;;4849586;29;20037;-76
2022/12/07 11:32:07;;;;;;;4.57;2.60;;;6.20;99.90;;;;;;4848572;29;20055;-76
2022/12/07 11:35:08;;;;;;;4.40;1.95;;;6.30;99.90;;;;;;4849816;29;20331;-75
2022/12/07 11:37:37;;;;;;;3.40;1.95;;;6.40;99.90;;;;;;4849532;29;20057;-76
2022/12/07 11:40:29;;;;;;;4.43;1.90;;;6.30;99.90;;;;;;4835043;29;20360;-76
2022/12/07 11:43:21;;;;;;;3.67;1.95;;;6.30;99.90;;;;;;4836238;29;20038;-75
2022/12/07 11:45:59;;;;;;;4.28;2.00;;;6.20;99.90;;;;;;4852889;29;20065;-75
2022/12/07 11:48:54;;;;;;;4.28;1.90;;;6.20;99.90;;;;;;4853356;29;20045;-78
2022/12/07 11:51:25;;;;;;;5.68;1.98;;;6.20;99.90;;;;;;4819303;29;20041;-76
2022/12/07 11:54:09;;;;;;;3.10;1.63;;;6.20;99.90;;;;;;4852503;29;20049;-76
2022/12/07 11:56:38;;;;;;;4.30;2.17;;;6.20;99.90;;;;;;4847142;29;20264;-76
2022/12/07 11:59:18;;;;;;;4.20;2.47;;;6.20;99.90;;;;;;4851747;29;20050;-76
2022/12/07 12:01:56;;;;;;;5.18;2.70;;;6.20;99.90;;;;;;4852865;29;20049;-76
2022/12/07 12:04:40;;;;;;;5.72;3.00;;;6.10;99.90;;;;;;4839505;29;20043;-77
2022/12/07 12:07:07;;;;;;;5.55;2.90;;;6.00;99.90;;;;;;4870482;29;20038;-77
2022/12/07 12:09:41;;;;;;;6.50;3.50;;;6.00;99.90;;;;;;4871084;29;20092;-76
2022/12/07 12:12:27;;;;;;;5.75;3.30;;;6.10;99.90;;;;;;4870536;29;20041;-77
2022/12/07 12:15:18;;;;;;;6.00;3.40;;;6.10;99.90;;;;;;4870444;29;20040;-77
2022/12/07 12:18:26;;;;;;;6.57;3.80;;;6.00;99.90;;;;;;4869992;29;20223;-76
2022/12/07 12:20:57;;;;;;;5.93;3.95;;;6.00;99.90;;;;;;4853286;29;20069;-77
2022/12/07 12:23:45;;;;;;;6.70;3.45;;;6.00;99.90;;;;;;4870764;29;20033;-79
2022/12/07 12:26:28;;;;;;;7.00;3.90;;;6.00;99.90;;;;;;4839096;29;20215;-78
2022/12/07 12:29:05;;;;;;;7.55;4.40;;;6.00;99.90;;;;;;4870292;29;20369;-77
2022/12/07 12:31:39;;;;;;;6.57;4.20;;;6.00;99.90;;;;;;4853938;29;20037;-77
2022/12/07 12:34:34;;;;;;;6.22;3.75;;;6.00;99.90;;;;;;4869884;29;20328;-76
2022/12/07 12:37:00;;;;;;;6.53;3.97;;;6.00;99.90;;;;;;4853602;29;20041;-78
2022/12/07 12:39:26;;;;;;;8.38;4.30;;;5.90;99.90;;;;;;4870344;29;20044;-76
2022/12/07 12:44:22;;;;;;;6.05;3.83;;;6.00;99.90;;;;;;4870544;29;20059;-76
2022/12/07 12:46:50;;;;;;;10.88;4.07;;;6.10;99.90;;;;;;4853331;29;20319;-78
2022/12/07 12:49:22;;;;;;;6.55;3.78;;;6.20;99.90;;;;;;4870802;29;20097;-79
2022/12/07 12:51:51;;;;;;;7.53;3.40;;;6.20;99.90;;;;;;4853201;29;20097;-77
2022/12/07 12:54:25;;;;;;;7.65;3.50;;;6.20;99.90;;;;;;4870233;29;20211;-75
2022/12/07 12:57:09;;;;;;;6.35;3.17;;;6.10;99.90;;;;;;4868299;29;20026;-77
2022/12/07 13:00:00;;;;;;;5.60;3.10;;;6.10;99.90;;;;;;4870372;29;20209;-78
2022/12/07 13:02:47;;;;;;;5.50;3.53;;;6.10;99.90;;;;;;4861864;29;20343;-76
2022/12/07 13:05:13;;;;;;;6.63;3.13;;;6.10;99.90;;;;;;4870267;29;20300;-75
2022/12/07 13:07:44;;;;;;;6.95;3.88;;;6.20;99.90;;;;;;4869968;29;20056;-77
2022/12/07 13:10:34;;;;;;;7.13;3.92;;;6.10;99.90;;;;;;4869275;29;20056;-77
2022/12/07 13:13:14;;;;;;;8.45;4.63;;;6.20;99.90;;;;;;4869611;29;20069;-76
2022/12/07 13:15:43;;;;;;;10.75;5.70;;;6.20;99.90;;;;;;4865749;29;20332;-76
2022/12/07 13:18:25;;;;;;;4.40;2.63;;;6.40;99.90;;;;;;4834797;29;20046;-77
2022/12/07 13:21:07;;;;;;;5.43;3.28;;;6.30;99.90;;;;;;4856603;29;20285;-77
2022/12/07 13:23:57;;;;;;;5.28;2.75;;;6.30;99.90;;;;;;4862616;29;20236;-75
2022/12/07 13:26:43;;;;;;;7.32;3.38;;;6.30;99.90;;;;;;4869892;29;20141;-76
2022/12/07 13:29:19;;;;;;;5.68;2.95;;;6.20;99.90;;;;;;4869565;29;20149;-76
2022/12/07 13:31:51;;;;;;;4.35;3.00;;;6.10;99.90;;;;;;4853344;29;20037;-76
2022/12/07 13:34:33;;;;;;;6.20;3.38;;;6.10;99.90;;;;;;4869871;29;20074;-76
2022/12/07 13:37:14;;;;;;;6.65;3.50;;;6.00;99.90;;;;;;4869184;29;20033;-77
2022/12/07 13:39:55;;;;;;;6.30;3.47;;;5.90;99.90;;;;;;4853051;29;20348;-76
2022/12/07 13:42:28;;;;;;;5.97;3.63;;;5.80;99.90;;;;;;4852907;29;20029;-76
2022/12/07 13:44:56;;;;;;;7.32;3.92;;;5.80;99.90;;;;;;4869009;29;20038;-76
2022/12/07 13:47:41;;;;;;;8.10;3.80;;;5.80;99.90;;;;;;4869038;29;20037;-76
2022/12/07 13:50:24;;;;;;;6.97;3.83;;;5.80;99.90;;;;;;4868648;29;20041;-76
2022/12/07 13:52:50;;;;;;;6.90;3.70;;;5.80;99.90;;;;;;4868539;29;20037;-76
2022/12/07 13:55:17;;;;;;;5.80;3.67;;;5.80;99.90;;;;;;4869423;29;20097;-76
2022/12/07 13:57:46;;;;;;;7.10;4.00;;;5.80;99.90;;;;;;4852214;29;20082;-76
2022/12/07 14:00:26;;;;;;;6.22;3.78;;;5.70;99.90;;;;;;4868646;29;20070;-76
2022/12/07 14:02:59;;;;;;;7.63;4.25;;;5.70;99.90;;;;;;4868146;29;20113;-76
2022/12/07 14:05:30;;;;;;;8.10;4.05;;;5.70;99.90;;;;;;4852599;29;20029;-76
2022/12/07 14:07:59;;;;;;;7.65;4.22;;;5.70;99.90;;;;;;4868673;29;20078;-76
2022/12/07 14:10:32;;;;;;;6.40;4.13;;;5.70;99.90;;;;;;4867452;29;20044;-77
2022/12/07 14:12:59;;;;;;;6.95;4.15;;;5.80;99.90;;;;;;4868234;29;20256;-76
2022/12/07 14:15:34;;;;;;;8.75;4.25;;;5.80;99.90;;;;;;4868772;29;20034;-76
2022/12/07 14:18:04;;;;;;;8.32;4.72;;;5.80;99.90;;;;;;4868383;29;20026;-76
2022/12/07 14:20:39;;;;;;;6.60;4.10;;;5.80;99.90;;;;;;4867661;29;20096;-76
2022/12/07 14:23:21;;;;;;;9.77;4.35;;;5.80;99.90;;;;;;4868236;29;20029;-76
2022/12/07 14:25:52;;;;;;;6.75;4.50;;;5.80;99.90;;;;;;4852037;29;20208;-77
2022/12/07 14:28:32;;;;;;;7.55;4.28;;;5.90;99.90;;;;;;4852270;29;20053;-77
2022/12/07 14:31:00;;;;;;;7.45;4.25;;;5.80;99.90;;;;;;4867642;29;20113;-77
2022/12/07 14:33:27;;;;;;;8.25;4.55;;;5.80;99.90;;;;;;4867639;29;20034;-76
2022/12/07 14:35:57;;;;;;;7.38;4.30;;;5.80;99.90;;;;;;4867839;29;20371;-77
2022/12/07 14:38:24;;;;;;;9.30;4.70;;;5.80;99.90;;;;;;4868829;29;20199;-77
2022/12/07 14:40:51;;;;;;;7.22;4.80;;;5.80;99.90;;;;;;4868521;29;20092;-75
2022/12/07 14:43:18;;;;;;;8.20;4.35;;;5.70;99.90;;;;;;4869018;29;20268;-75
2022/12/07 14:45:44;;;;;;;8.98;4.45;;;5.70;99.90;;;;;;4870307;29;20040;-75
2022/12/07 14:48:14;;;;;;;7.00;4.10;;;5.70;99.90;;;;;;4868646;29;20037;-75
2022/12/07 14:50:44;;;;;;;9.70;4.90;;;5.60;99.90;;;;;;4868821;29;20033;-76
2022/12/07 14:53:15;;;;;;;8.57;4.88;;;5.60;99.90;;;;;;4867576;29;20295;-77
2022/12/07 14:55:41;;;;;;;11.15;4.97;;;5.50;99.90;;;;;;4850199;29;20033;-78
2022/12/07 14:58:14;;;;;;;8.93;4.78;;;5.50;99.90;;;;;;4853689;29;20040;-73
2022/12/07 15:00:39;;;;;;;9.70;4.97;;;5.50;99.90;;;;;;4868599;29;20193;-77
2022/12/07 15:03:12;;;;;;;8.52;4.60;;;5.50;99.90;;;;;;4867795;29;20108;-78
2022/12/07 15:05:42;;;;;;;12.52;5.45;;;5.50;99.90;;;;;;4849580;29;20046;-78
2022/12/07 15:08:14;;;;;;;8.98;5.07;;;5.50;99.90;;;;;;4867743;29;20041;-77
2022/12/07 15:10:48;;;;;;;9.82;5.50;;;5.40;99.90;;;;;;4867895;29;20033;-78
2022/12/07 15:16:05;;;;;;;11.27;5.32;;;5.30;99.90;;;;;;4855331;29;20033;-79
2022/12/07 15:18:34;;;;;;;8.38;4.53;;;5.30;99.90;;;;;;4874986;29;20021;-76
2022/12/07 15:20:59;;;;;;;8.40;5.22;;;5.30;99.90;;;;;;4864555;29;20048;-74
2022/12/07 15:23:25;;;;;;;8.43;4.90;;;5.40;99.90;;;;;;4881695;29;20037;-76
2022/12/07 15:25:51;;;;;;;7.43;4.63;;;5.30;99.90;;;;;;4859868;29;20056;-76
2022/12/07 15:28:17;;;;;;;7.15;4.60;;;5.20;99.90;;;;;;4871385;29;20079;-76
2022/12/07 15:30:44;;;;;;;8.10;4.20;;;5.20;99.90;;;;;;4871500;29;20044;-76
2022/12/07 15:33:10;;;;;;;12.70;6.00;;;5.10;99.90;;;;;;4839805;29;20030;-75
2022/12/07 15:35:44;;;;;;;8.00;4.53;;;5.10;99.90;;;;;;4871805;29;20052;-75
2022/12/07 15:38:09;;;;;;;9.93;5.38;;;5.10;99.90;;;;;;4869450;29;20059;-77
2022/12/07 15:40:37;;;;;;;8.73;4.95;;;5.10;99.90;;;;;;4870727;29;20104;-77
2022/12/07 15:43:04;;;;;;;7.18;4.15;;;5.10;99.90;;;;;;4854780;29;20077;-76
2022/12/07 15:45:32;;;;;;;8.93;4.75;;;5.10;99.90;;;;;;4854915;29;20110;-76
2022/12/07 15:48:00;;;;;;;8.00;4.50;;;5.10;99.90;;;;;;4854943;29;20033;-76
2022/12/07 15:50:26;;;;;;;9.02;5.30;;;5.10;99.90;;;;;;4871620;29;20060;-76
2022/12/07 15:52:52;;;;;;;8.68;5.30;;;5.10;99.90;;;;;;4853059;29;20092;-76
2022/12/07 15:55:18;;;;;;;8.60;4.97;;;5.10;99.90;;;;;;4854143;29;20065;-76
2022/12/07 15:57:43;;;;;;;9.35;5.47;;;5.00;99.90;;;;;;4870904;29;20059;-77
2022/12/07 16:00:11;;;;;;;8.45;4.95;;;4.90;99.90;;;;;;4854155;29;20042;-77
2022/12/07 16:02:37;;;;;;;7.28;4.38;;;4.80;99.90;;;;;;4846690;29;20057;-77
2022/12/07 16:05:03;;;;;;;11.45;5.05;;;4.70;99.90;;;;;;4835858;29;20171;-77
2022/12/07 16:07:29;;;;;;;9.23;4.80;;;4.80;99.90;;;;;;4852567;29;20268;-76
2022/12/07 16:09:55;;;;;;;9.82;4.78;;;4.70;99.90;;;;;;4835618;29;20083;-76
2022/12/07 16:12:21;;;;;;;8.20;4.70;;;4.70;99.90;;;;;;4849554;29;20029;-75
2022/12/07 16:14:47;;;;;;;9.70;5.65;;;4.60;99.90;;;;;;4835861;29;20030;-76
2022/12/07 16:17:13;;;;;;;9.93;4.75;;;4.60;99.90;;;;;;4852207;29;20053;-76
2022/12/07 16:19:39;;;;;;;11.10;5.65;;;4.50;99.90;;;;;;4836003;29;20041;-75
2022/12/07 16:22:05;;;;;;;8.85;4.97;;;4.50;99.90;;;;;;4851840;29;20284;-77
2022/12/07 16:24:33;;;;;;;10.38;5.85;;;4.50;99.90;;;;;;4852069;29;20039;-76
2022/12/07 16:26:59;;;;;;;10.50;5.65;;;4.50;99.90;;;;;;4851737;29;20296;-76
2022/12/07 16:29:31;;;;;;;10.18;5.82;;;4.50;99.90;;;;;;4851855;29;20030;-76
2022/12/07 16:32:00;;;;;;;11.70;6.65;;;4.40;99.90;;;;;;4835509;29;20038;-76
2022/12/07 16:34:28;;;;;;;10.57;6.32;;;4.40;99.90;;;;;;4836415;29;20083;-77
2022/12/07 16:36:54;;;;;;;11.45;6.35;;;4.40;99.90;;;;;;4833754;29;20105;-78
2022/12/07 16:39:20;;;;;;;11.82;6.10;;;4.30;99.90;;;;;;4833334;29;20045;-76
2022/12/07 16:41:46;;;;;;;10.05;6.05;;;4.30;99.90;;;;;;4833598;29;20054;-77
2022/12/07 16:44:13;;;;;;;11.15;5.93;;;4.20;99.90;;;;;;4817156;29;20316;-77
2022/12/07 16:46:39;;;;;;;11.68;6.45;;;4.10;99.90;;;;;;4833816;29;20050;-77
2022/12/07 16:49:05;;;;;;;12.52;6.95;;;4.00;99.90;;;;;;4831934;29;20046;-75
2022/12/07 16:51:31;;;;;;;14.55;6.90;;;3.90;99.90;;;;;;4832646;29;20050;-77
2022/12/07 16:53:57;;;;;;;11.45;6.40;;;3.80;99.90;;;;;;4840461;29;20018;-77
2022/12/07 16:56:23;;;;;;;11.10;6.38;;;3.70;99.90;;;;;;4847127;29;20030;-76
2022/12/07 16:58:49;;;;;;;11.77;5.93;;;3.60;99.90;;;;;;4842029;29;20021;-77
2022/12/07 17:01:18;;;;;;;14.23;7.70;;;3.70;99.90;;;;;;4851217;29;20038;-77
2022/12/07 17:03:44;;;;;;;;;;;3.60;99.90;;;;;;4833159;29;20054;-77
2022/12/07 17:06:18;;;;;;;13.52;7.63;;;3.50;99.90;;;;;;4865731;29;19942;-77
2022/12/07 17:08:44;;;;;;;31.15;18.73;;;3.40;99.90;;;;;;4850379;29;20086;-77
2022/12/07 17:11:31;;;;;;;18.27;9.25;;;3.40;99.90;;;;;;4860414;29;20026;-76
2022/12/07 17:16:43;;;;;;;14.98;7.80;;;3.40;99.90;;;;;;4851934;29;20038;-76
2022/12/07 17:19:15;;;;;;;11.67;6.73;;;3.40;99.90;;;;;;4851100;29;20038;-75
2022/12/07 17:21:42;;;;;;;14.00;7.57;;;3.50;99.90;;;;;;4851689;29;20065;-75
2022/12/07 17:24:10;;;;;;;19.10;8.52;;;3.50;99.90;;;;;;4851143;29;20105;-74
2022/12/07 17:26:37;;;;;;;15.25;8.13;;;3.60;99.90;;;;;;4852040;29;20038;-80
2022/12/07 17:29:05;;;;;;;14.27;7.85;;;3.60;99.90;;;;;;4858089;29;20106;-77
2022/12/07 17:31:32;;;;;;;17.05;8.45;;;3.60;99.90;;;;;;4851642;29;20220;-77
2022/12/07 17:33:58;;;;;;;15.07;8.65;;;3.70;99.90;;;;;;4851881;29;20073;-77
2022/12/07 17:36:29;;;;;;;15.38;8.30;;;3.80;99.90;;;;;;4851369;29;20038;-77
2022/12/07 17:38:56;;;;;;;14.48;7.65;;;3.80;99.90;;;;;;4851897;29;20265;-77
2022/12/07 17:44:17;;;;;;;12.43;7.18;;;3.90;99.90;;;;;;4851436;29;20034;-77
2022/12/07 17:46:45;;;;;;;10.70;6.47;;;3.90;99.90;;;;;;4851464;29;20049;-78
2022/12/07 17:49:11;;;;;;;13.00;7.10;;;4.00;99.90;;;;;;4849900;29;20070;-76
2022/12/07 17:54:25;;;;;;;11.85;6.82;;;4.00;99.90;;;;;;4849119;29;20034;-76
2022/12/07 17:56:51;;;;;;;12.35;6.97;;;4.00;99.90;;;;;;4865515;29;20383;-77
2022/12/07 17:59:17;;;;;;;13.55;7.93;;;3.90;99.90;;;;;;4834338;29;20029;-76
2022/12/07 18:01:44;;;;;;;14.25;7.38;;;3.90;99.90;;;;;;4819468;29;20034;-79
2022/12/07 18:04:16;;;;;;;15.50;7.65;;;4.00;99.90;;;;;;4865634;29;20061;-75
2022/12/07 18:06:45;;;;;;;14.90;7.40;;;4.00;99.90;;;;;;4850823;29;20038;-76
2022/12/07 18:09:11;;;;;;;15.00;7.50;;;4.00;99.90;;;;;;4850405;29;20037;-75
2022/12/07 18:11:38;;;;;;;13.60;7.60;;;4.00;99.90;;;;;;4850574;29;20038;-78
2022/12/07 18:14:07;;;;;;;12.35;7.07;;;4.00;99.90;;;;;;4850847;29;20215;-79
2022/12/07 18:16:34;;;;;;;12.85;7.80;;;4.00;99.90;;;;;;4850075;29;20030;-75
2022/12/07 18:19:05;;;;;;;15.00;7.50;;;3.90;99.90;;;;;;4849866;29;20033;-78
2022/12/07 18:21:34;;;;;;;11.82;6.72;;;4.00;99.90;;;;;;4850102;29;20319;-77
2022/12/07 18:24:03;;;;;;;14.07;7.72;;;4.00;99.90;;;;;;4851778;29;20148;-77
2022/12/07 18:26:31;;;;;;;14.77;7.80;;;4.00;99.90;;;;;;4853007;29;20070;-75
2022/12/07 18:28:59;;;;;;;16.08;8.60;;;4.00;99.90;;;;;;4851370;29;20053;-76
2022/12/07 18:31:25;;;;;;;15.60;8.27;;;4.00;99.90;;;;;;4849158;29;20042;-76
2022/12/07 18:33:54;;;;;;;15.00;8.07;;;4.00;99.90;;;;;;4849889;29;20032;-76
2022/12/07 18:36:21;;;;;;;15.57;8.68;;;4.00;99.90;;;;;;4849733;29;20045;-78
2022/12/07 18:38:47;;;;;;;23.98;12.93;;;4.00;99.90;;;;;;4834550;29;20038;-76
2022/12/07 18:41:14;;;;;;;14.80;8.02;;;4.00;99.90;;;;;;4849962;29;20106;-76
2022/12/07 18:43:41;;;;;;;12.10;7.00;;;4.00;99.90;;;;;;4862278;29;20224;-76
2022/12/07 18:46:15;;;;;;;12.82;6.80;;;4.00;99.90;;;;;;4868314;29;20256;-77
2022/12/07 18:48:41;;;;;;;15.30;7.38;;;4.00;99.90;;;;;;4868683;29;20109;-75
2022/12/07 18:51:10;;;;;;;14.27;8.23;;;4.00;99.90;;;;;;4868668;29;20116;-76
2022/12/07 18:53:36;;;;;;;13.45;7.55;;;3.90;99.90;;;;;;4869347;29;20033;-78
2022/12/07 18:56:08;;;;;;;11.68;6.25;;;4.00;99.90;;;;;;4869098;29;20040;-76
2022/12/07 18:58:34;;;;;;;12.70;7.20;;;4.00;99.90;;;;;;4861307;29;20030;-76
2022/12/07 19:01:00;;;;;;;12.00;6.68;;;4.00;99.90;;;;;;4850432;29;20338;-76
2022/12/07 19:03:27;;;;;;;10.30;5.97;;;4.00;99.90;;;;;;4862494;29;20076;-76
2022/12/07 19:05:56;;;;;;;12.20;6.60;;;4.00;99.90;;;;;;4855593;29;20021;-76
2022/12/07 19:08:23;;;;;;;11.25;6.68;;;4.00;99.90;;;;;;4868620;29;20038;-76
2022/12/07 19:10:49;;;;;;;12.55;6.97;;;4.00;99.90;;;;;;4869107;29;20049;-75
2022/12/07 19:13:15;;;;;;;12.73;7.10;;;4.10;99.90;;;;;;4867972;29;20117;-77
2022/12/07 19:15:40;;;;;;;11.35;6.30;;;4.00;99.90;;;;;;4868734;29;20251;-75
2022/12/07 19:18:07;;;;;;;10.60;5.57;;;4.10;99.90;;;;;;4868253;29;20089;-76
2022/12/07 19:20:33;;;;;;;10.88;6.05;;;4.00;99.90;;;;;;4868647;29;20041;-75
2022/12/07 19:22:59;;;;;;;13.15;6.65;;;4.00;99.90;;;;;;4868619;29;20037;-75
2022/12/07 19:25:24;;;;;;;12.57;6.40;;;4.10;99.90;;;;;;4867201;29;20049;-76
2022/12/07 19:27:54;;;;;;;11.32;6.28;;;4.00;99.90;;;;;;4852288;29;20036;-76
2022/12/07 19:30:21;;;;;;;11.80;7.07;;;4.00;99.90;;;;;;4867950;29;20037;-75
2022/12/07 19:32:47;;;;;;;8.93;5.57;;;4.00;99.90;;;;;;4868311;29;20040;-76